Time;durP1;ratioP1;P1;durP2;ratioP2;P2;SDS_P1;SDS_P2;PMS_P1;PMS_P2;Temp;Humidity;BMP_temperature;BMP_pressure;BME280_temperature;BME280_humidity;BME280_pressure;Samples;Min_cycle;Max_cycle;Signal;HPM_P1;HPM_P2
2022/04/16 00:00:49;;;;;;;;;15.00;13.33;;;;;-147.47;100.00;64613.53;5036346;28;45473;-76
2022/04/16 00:03:15;;;;;;;;;17.00;15.00;;;;;-147.47;100.00;64613.53;5037742;28;46070;-75
2022/04/16 00:05:40;;;;;;;;;19.33;16.33;;;;;-147.47;100.00;64613.53;5017823;28;45425;-74
2022/04/16 00:08:06;;;;;;;;;14.00;13.00;;;;;-147.47;100.00;64613.53;5025082;28;45719;-75
2022/04/16 00:10:33;;;;;;;;;19.33;17.33;;;;;-147.47;100.00;64613.53;5015432;28;45745;-74
2022/04/16 00:12:59;;;;;;;;;21.00;17.00;;;;;-147.47;100.00;64613.53;5029327;28;45367;-74
2022/04/16 00:15:25;;;;;;;;;23.00;18.33;;;;;-147.47;100.00;64613.53;5036285;28;45933;-76
2022/04/16 00:17:51;;;;;;;;;16.00;12.67;;;;;-147.47;100.00;64613.53;5036750;28;45525;-75
2022/04/16 00:20:16;;;;;;;;;18.00;15.33;;;;;-147.47;100.00;64613.53;5020074;28;45271;-74
2022/04/16 00:22:42;;;;;;;;;17.33;14.67;;;;;-147.47;100.00;64613.53;5018182;28;45678;-75
2022/04/16 00:25:07;;;;;;;;;14.67;11.67;;;;;-147.47;100.00;64613.53;5022880;28;46167;-75
2022/04/16 00:27:34;;;;;;;;;18.00;17.00;;;;;-147.47;100.00;64613.53;5054811;28;45487;-75
2022/04/16 00:30:01;;;;;;;;;18.67;17.67;;;;;-147.47;100.00;64613.53;5038556;28;46370;-74
2022/04/16 00:32:27;;;;;;;;;14.33;13.67;;;;;-147.47;100.00;64613.53;5038372;28;46161;-75
2022/04/16 00:34:53;;;;;;;;;15.67;13.67;;;;;-147.47;100.00;64613.53;5022109;28;45401;-73
2022/04/16 00:37:18;;;;;;;;;15.33;15.00;;;;;-147.47;100.00;64613.53;5018619;28;45414;-75
2022/04/16 00:39:43;;;;;;;;;20.00;16.33;;;;;-147.47;100.00;64613.53;5019360;28;45386;-75
2022/04/16 00:42:09;;;;;;;;;20.00;18.33;;;;;-147.47;100.00;64613.53;5031625;28;45610;-75
2022/04/16 00:44:35;;;;;;;;;21.00;20.67;;;;;-147.47;100.00;64613.53;5030347;28;45685;-75
2022/04/16 00:47:00;;;;;;;;;15.67;13.00;;;;;-147.47;100.00;64613.53;5035590;28;45336;-76
2022/04/16 00:49:25;;;;;;;;;19.67;18.33;;;;;-147.47;100.00;64613.53;5037287;28;45380;-74
2022/04/16 00:51:51;;;;;;;;;17.33;17.33;;;;;-147.47;100.00;64613.53;5038276;28;45384;-74
2022/04/16 00:54:18;;;;;;;;;26.67;19.33;;;;;-147.47;100.00;64613.53;5038873;28;45364;-73
2022/04/16 00:56:44;;;;;;;;;18.33;16.33;;;;;-147.47;100.00;64613.53;5036287;28;45728;-74
2022/04/16 00:59:10;;;;;;;;;15.33;15.00;;;;;-147.47;100.00;64613.53;5037371;28;45415;-74
2022/04/16 01:01:35;;;;;;;;;19.33;15.33;;;;;-147.47;100.00;64613.53;5037380;28;46450;-75
2022/04/16 01:04:01;;;;;;;;;26.33;19.33;;;;;-147.47;100.00;64613.53;5025423;28;45275;-75
2022/04/16 01:06:36;;;;;;;;;21.67;17.00;;;;;-147.47;100.00;64613.53;5031867;28;45857;-75
2022/04/16 01:09:03;;;;;;;;;21.67;17.00;;;;;-147.47;100.00;64613.53;5036449;28;45759;-75
2022/04/16 01:11:28;;;;;;;;;19.67;16.00;;;;;-147.47;100.00;64613.53;5036594;28;45377;-75
2022/04/16 01:13:57;;;;;;;;;22.00;22.00;;;;;-147.47;100.00;64613.53;5051732;28;45591;-75
2022/04/16 01:16:22;;;;;;;;;15.67;15.00;;;;;-147.47;100.00;64613.53;5037478;28;45403;-74
2022/04/16 01:18:48;;;;;;;;;16.00;15.67;;;;;-147.47;100.00;64613.53;5030847;28;45611;-75
2022/04/16 01:21:14;;;;;;;;;18.00;16.67;;;;;-147.47;100.00;64613.53;5026809;28;45653;-75
2022/04/16 01:23:39;;;;;;;;;23.33;17.67;;;;;-147.47;100.00;64613.53;5034531;28;45434;-75
2022/04/16 01:26:06;;;;;;;;;27.67;21.67;;;;;-147.47;100.00;64613.53;5034875;28;45303;-76
2022/04/16 01:28:32;;;;;;;;;23.00;19.33;;;;;-147.47;100.00;64613.53;5034613;28;45715;-75
2022/04/16 01:30:57;;;;;;;;;21.33;18.67;;;;;-147.47;100.00;64613.53;5037253;28;45426;-77
2022/04/16 01:33:23;;;;;;;;;22.33;15.00;;;;;-147.47;100.00;64613.53;5037291;28;45363;-75
2022/04/16 01:35:53;;;;;;;;;21.67;18.67;;;;;-147.47;100.00;64613.53;5037654;28;45311;-75
2022/04/16 01:38:19;;;;;;;;;21.67;17.33;;;;;-147.47;100.00;64613.53;5035094;28;45407;-77
2022/04/16 01:40:45;;;;;;;;;18.00;16.33;;;;;-147.47;100.00;64613.53;5034425;28;46013;-75
2022/04/16 01:43:10;;;;;;;;;15.00;15.00;;;;;-147.47;100.00;64613.53;5035331;28;45541;-75
2022/04/16 01:45:35;;;;;;;;;20.67;17.67;;;;;-147.47;100.00;64613.53;5016891;28;45705;-74
2022/04/16 01:48:01;;;;;;;;;21.33;16.00;;;;;-147.47;100.00;64613.53;5034869;28;45421;-75
2022/04/16 01:50:27;;;;;;;;;23.00;21.33;;;;;-147.47;100.00;64613.53;5034668;28;46202;-75
2022/04/16 01:52:54;;;;;;;;;19.33;17.67;;;;;-147.47;100.00;64613.53;5033975;28;45637;-77
2022/04/16 01:55:19;;;;;;;;;29.00;20.67;;;;;-147.47;100.00;64613.53;5017212;28;45342;-75
2022/04/16 01:57:45;;;;;;;;;29.33;22.67;;;;;-147.47;100.00;64613.53;5017132;28;46261;-74
2022/04/16 02:00:14;;;;;;;;;19.33;19.33;;;;;-147.47;100.00;64613.53;5035130;28;46148;-75
2022/04/16 02:02:41;;;;;;;;;23.33;20.33;;;;;-147.47;100.00;64613.53;5033261;28;45370;-74
2022/04/16 02:05:07;;;;;;;;;22.00;18.33;;;;;-147.47;100.00;64613.53;5036631;28;45812;-76
2022/04/16 02:07:33;;;;;;;;;22.33;22.00;;;;;-147.47;100.00;64613.53;5038546;28;46048;-74
2022/04/16 02:10:00;;;;;;;;;25.33;24.33;;;;;-147.47;100.00;64613.53;5040200;28;45894;-74
2022/04/16 02:12:26;;;;;;;;;19.67;17.33;;;;;-147.47;100.00;64613.53;5031691;28;45327;-75
2022/04/16 02:14:51;;;;;;;;;21.00;21.00;;;;;-147.47;100.00;64613.53;5040189;28;45646;-73
2022/04/16 02:17:16;;;;;;;;;21.67;21.00;;;;;-147.47;100.00;64613.53;5036410;28;45359;-75
2022/04/16 02:19:43;;;;;;;;;23.33;21.33;;;;;-147.47;100.00;64613.53;5034718;28;48119;-74
2022/04/16 02:22:08;;;;;;;;;22.33;22.33;;;;;-147.47;100.00;64613.53;5036976;28;45688;-76
2022/04/16 02:24:34;;;;;;;;;23.33;22.00;;;;;-147.47;100.00;64613.53;5038445;28;45415;-76
2022/04/16 02:26:59;;;;;;;;;20.33;18.67;;;;;-147.47;100.00;64613.53;5039111;28;45687;-75
2022/04/16 02:29:25;;;;;;;;;19.33;17.00;;;;;-147.47;100.00;64613.53;5038536;28;46469;-75
2022/04/16 02:31:51;;;;;;;;;19.00;18.67;;;;;-147.47;100.00;64613.53;5018679;28;45872;-74
2022/04/16 02:34:19;;;;;;;;;21.33;18.00;;;;;-147.47;100.00;64613.53;5037001;28;45734;-74
2022/04/16 02:36:44;;;;;;;;;20.67;19.33;;;;;-147.47;100.00;64613.53;5037017;28;45960;-76
2022/04/16 02:39:10;;;;;;;;;28.67;23.33;;;;;-147.47;100.00;64613.53;5034610;28;45513;-72
2022/04/16 02:41:35;;;;;;;;;22.67;22.00;;;;;-147.47;100.00;64613.53;5035792;28;45803;-73
2022/04/16 02:44:01;;;;;;;;;19.67;17.67;;;;;-147.47;100.00;64613.53;5036494;28;45600;-72
2022/04/16 02:49:13;;;;;;;;;29.00;21.33;;;;;-147.47;100.00;64613.53;5035767;28;45450;-74
2022/04/16 02:51:38;;;;;;;;;29.33;26.00;;;;;-147.47;100.00;64613.53;5029617;28;45571;-75
2022/04/16 02:54:05;;;;;;;;;26.33;23.33;;;;;-147.47;100.00;64613.53;5038766;28;45423;-74
2022/04/16 02:56:32;;;;;;;;;26.33;25.67;;;;;-147.47;100.00;64613.53;5037859;28;45391;-76
2022/04/16 02:58:57;;;;;;;;;25.00;22.33;;;;;-147.47;100.00;64613.53;5037849;28;45684;-72
2022/04/16 03:01:23;;;;;;;;;30.67;27.67;;;;;-147.47;100.00;64613.53;5038318;28;45664;-77
2022/04/16 03:03:49;;;;;;;;;30.33;27.00;;;;;-147.47;100.00;64613.53;5033606;28;45365;-75
2022/04/16 03:06:14;;;;;;;;;24.33;22.33;;;;;-147.47;100.00;64613.53;5040536;28;45105;-75
2022/04/16 03:08:40;;;;;;;;;28.50;28.50;;;;;-147.47;100.00;64613.53;5022889;28;45720;-74
2022/04/16 03:11:06;;;;;;;;;31.33;26.00;;;;;-147.47;100.00;64613.53;5017620;28;45497;-75
2022/04/16 03:13:34;;;;;;;;;34.33;28.33;;;;;-147.47;100.00;64613.53;5019676;28;45495;-74
2022/04/16 03:18:45;;;;;;;;;35.67;30.67;;;;;-147.47;100.00;64613.53;5036668;28;45449;-75
2022/04/16 03:21:11;;;;;;;;;29.00;26.33;;;;;-147.47;100.00;64613.53;5037863;28;45374;-75
2022/04/16 03:23:37;;;;;;;;;29.67;28.33;;;;;-147.47;100.00;64613.53;5038077;28;45381;-74
2022/04/16 03:26:02;;;;;;;;;26.67;26.33;;;;;-147.47;100.00;64613.53;5037754;28;45371;-76
2022/04/16 03:28:27;;;;;;;;;33.33;27.33;;;;;-147.47;100.00;64613.53;5037964;28;45743;-74
2022/04/16 03:30:53;;;;;;;;;34.00;30.67;;;;;-147.47;100.00;64613.53;5020387;28;45373;-74
2022/04/16 03:33:19;;;;;;;;;36.00;31.67;;;;;-147.47;100.00;64613.53;5037124;28;45343;-74
2022/04/16 03:35:45;;;;;;;;;31.67;27.33;;;;;-147.47;100.00;64613.53;5037715;28;45321;-76
2022/04/16 03:38:10;;;;;;;;;33.67;29.67;;;;;-147.47;100.00;64613.53;5037964;28;45730;-74
2022/04/16 03:40:36;;;;;;;;;36.00;31.67;;;;;-147.47;100.00;64613.53;5024508;28;45335;-72
2022/04/16 03:43:02;;;;;;;;;41.00;29.67;;;;;-147.47;100.00;64613.53;5015264;28;45802;-72
2022/04/16 03:45:31;;;;;;;;;36.67;30.33;;;;;-147.47;100.00;64613.53;5014616;28;45946;-74
2022/04/16 03:47:59;;;;;;;;;27.67;26.00;;;;;-147.47;100.00;64613.53;5010656;28;48405;-72
2022/04/16 03:50:26;;;;;;;;;36.00;31.33;;;;;-147.47;100.00;64613.53;5016975;28;45728;-74
2022/04/16 03:52:53;;;;;;;;;35.33;31.33;;;;;-147.47;100.00;64613.53;5016839;28;45334;-72
2022/04/16 04:00:54;;;;;;;;;41.33;30.67;;;;;-147.47;100.00;64613.53;5034717;28;45378;-76
2022/04/16 04:03:20;;;;;;;;;30.33;28.67;;;;;-147.47;100.00;64613.53;5033012;28;45364;-72
2022/04/16 04:05:48;;;;;;;;;36.67;29.00;;;;;-147.47;100.00;64613.53;5034098;28;45822;-71
2022/04/16 04:08:14;;;;;;;;;36.00;31.00;;;;;-147.47;100.00;64613.53;5033706;28;46050;-71
2022/04/16 04:10:39;;;;;;;;;34.67;31.00;;;;;-147.47;100.00;64613.53;5012745;28;45617;-73
2022/04/16 04:13:05;;;;;;;;;34.33;31.33;;;;;-147.47;100.00;64613.53;5022039;28;45631;-72
2022/04/16 04:15:31;;;;;;;;;37.00;30.33;;;;;-147.47;100.00;64613.53;5028900;28;45378;-71
2022/04/16 04:17:58;;;;;;;;;35.00;31.00;;;;;-147.47;100.00;64613.53;5012491;28;45922;-74
2022/04/16 04:20:25;;;;;;;;;43.00;29.33;;;;;-147.47;100.00;64613.53;5009385;28;45698;-72
2022/04/16 04:22:50;;;;;;;;;36.33;29.67;;;;;-147.47;100.00;64613.53;5030896;28;45766;-72
2022/04/16 04:25:16;;;;;;;;;30.00;25.67;;;;;-147.47;100.00;64613.53;5027934;28;45375;-74
2022/04/16 04:27:41;;;;;;;;;36.33;30.67;;;;;-147.47;100.00;64613.53;5030853;28;45998;-74
2022/04/16 04:30:07;;;;;;;;;32.67;29.33;;;;;-147.47;100.00;64613.53;5027976;28;45311;-73
2022/04/16 04:32:32;;;;;;;;;39.33;32.33;;;;;-147.47;100.00;64613.53;5030642;28;45566;-75
2022/04/16 04:34:58;;;;;;;;;35.33;29.67;;;;;-147.47;100.00;64613.53;5005916;28;46898;-73
2022/04/16 04:37:23;;;;;;;;;34.67;31.33;;;;;-147.47;100.00;64613.53;5033112;28;46137;-73
2022/04/16 04:39:49;;;;;;;;;40.33;33.33;;;;;-147.47;100.00;64613.53;5029363;28;45766;-72
2022/04/16 04:42:25;;;;;;;;;37.67;30.33;;;;;-147.47;100.00;64613.53;5026676;28;45428;-75
2022/04/16 04:44:51;;;;;;;;;34.33;30.67;;;;;-147.47;100.00;64613.53;5032501;28;45566;-73
2022/04/16 04:47:17;;;;;;;;;43.33;33.00;;;;;-147.47;100.00;64613.53;5027786;28;45632;-72
2022/04/16 04:49:42;;;;;;;;;36.67;32.67;;;;;-147.47;100.00;64613.53;5026125;28;45690;-72
2022/04/16 04:52:08;;;;;;;;;46.00;35.67;;;;;-147.47;100.00;64613.53;5027268;28;45428;-73
2022/04/16 04:54:33;;;;;;;;;42.67;35.00;;;;;-147.47;100.00;64613.53;5023752;28;45466;-73
2022/04/16 04:56:59;;;;;;;;;49.33;35.33;;;;;-147.47;100.00;64613.53;5022709;28;45692;-73
2022/04/16 04:59:24;;;;;;;;;39.33;32.33;;;;;-147.47;100.00;64613.53;5010346;28;45686;-74
2022/04/16 05:01:50;;;;;;;;;45.00;34.33;;;;;-147.47;100.00;64613.53;5024890;28;45526;-73
2022/04/16 05:04:15;;;;;;;;;46.00;36.00;;;;;-147.47;100.00;64613.53;5017507;28;45658;-73
2022/04/16 05:06:41;;;;;;;;;45.00;35.67;;;;;-147.47;100.00;64613.53;5018521;28;46068;-72
2022/04/16 05:09:06;;;;;;;;;40.67;32.33;;;;;-147.47;100.00;64613.53;5018828;28;47170;-75
2022/04/16 05:11:32;;;;;;;;;43.00;37.33;;;;;-147.47;100.00;64613.53;5021000;28;45742;-74
2022/04/16 05:13:57;;;;;;;;;39.67;33.00;;;;;-147.47;100.00;64613.53;5015538;28;47082;-74
2022/04/16 05:16:23;;;;;;;;;42.25;34.25;;;;;-147.47;100.00;64613.53;5008925;28;48365;-73
2022/04/16 05:18:48;;;;;;;;;43.75;35.50;;;;;-147.47;100.00;64613.53;5032132;28;45792;-73
2022/04/16 05:21:14;;;;;;;;;43.50;36.75;;;;;-147.47;100.00;64613.53;5019725;28;46147;-72
2022/04/16 05:23:40;;;;;;;;;48.50;38.75;;;;;-147.47;100.00;64613.53;5024744;28;45726;-70
2022/04/16 05:26:08;;;;;;;;;47.25;36.75;;;;;-147.47;100.00;64613.53;5034970;28;46659;-73
2022/04/16 05:28:33;;;;;;;;;31.00;30.00;;;;;-147.47;100.00;64613.53;5019272;28;45531;-72
2022/04/16 05:31:00;;;;;;;;;43.67;36.00;;;;;-147.47;100.00;64613.53;5037228;28;45667;-72
2022/04/16 05:36:09;;;;;;;;;39.67;36.67;;;;;-147.47;100.00;64613.53;5015053;28;45749;-71
2022/04/16 05:38:35;;;;;;;;;43.00;36.00;;;;;-147.47;100.00;64613.53;5021616;28;45625;-71
2022/04/16 05:41:01;;;;;;;;;48.33;37.00;;;;;-147.47;100.00;64613.53;5027512;28;45413;-72
2022/04/16 05:43:27;;;;;;;;;45.67;37.33;;;;;-147.47;100.00;64613.53;5025631;28;45832;-72
2022/04/16 05:45:52;;;;;;;;;41.33;35.67;;;;;-147.47;100.00;64613.53;5022980;28;46154;-71
2022/04/16 05:48:18;;;;;;;;;46.25;36.25;;;;;-147.47;100.00;64613.53;5019951;28;45864;-74
2022/04/16 05:50:44;;;;;;;;;45.67;36.67;;;;;-147.47;100.00;64613.53;5022801;28;45569;-72
2022/04/16 05:53:11;;;;;;;;;52.33;39.67;;;;;-147.47;100.00;64613.53;5025474;28;46361;-72
2022/04/16 05:55:45;;;;;;;;;47.67;36.67;;;;;-147.47;100.00;64613.53;5025141;28;46867;-73
2022/04/16 05:58:11;;;;;;;;;38.00;35.33;;;;;-147.47;100.00;64613.53;5022582;28;45964;-79
2022/04/16 06:00:37;;;;;;;;;39.33;35.00;;;;;-147.47;100.00;64613.53;5021136;28;45779;-75
2022/04/16 06:03:06;;;;;;;;;36.33;33.67;;;;;-147.47;100.00;64613.53;5022388;28;46168;-73
2022/04/16 06:05:31;;;;;;;;;38.00;34.33;;;;;-147.47;100.00;64613.53;5025911;28;45661;-74
2022/04/16 06:07:58;;;;;;;;;44.67;38.00;;;;;-147.47;100.00;64613.53;5020694;28;45419;-77
2022/04/16 06:10:24;;;;;;;;;46.00;37.33;;;;;-147.47;100.00;64613.53;5023487;28;45849;-77
2022/04/16 06:12:49;;;;;;;;;40.67;38.00;;;;;-147.47;100.00;64613.53;5014753;28;46056;-75
2022/04/16 06:15:15;;;;;;;;;35.67;33.00;;;;;-147.47;100.00;64613.53;5021985;28;46152;-75
2022/04/16 06:17:40;;;;;;;;;34.00;33.33;;;;;-147.47;100.00;64613.53;5029695;28;45932;-77
2022/04/16 06:20:08;;;;;;;;;38.00;32.33;;;;;-147.47;100.00;64613.53;5030236;28;45406;-73
2022/04/16 06:22:34;;;;;;;;;33.67;32.33;;;;;-147.47;100.00;64613.53;5027615;28;45719;-75
2022/04/16 06:24:59;;;;;;;;;36.33;34.33;;;;;-147.47;100.00;64613.53;5011205;28;46339;-78
2022/04/16 06:27:25;;;;;;;;;39.00;34.33;;;;;-147.47;100.00;64613.53;5026125;28;45896;-74
2022/04/16 06:29:50;;;;;;;;;33.33;29.33;;;;;-147.47;100.00;64613.53;5024596;28;45605;-75
2022/04/16 06:32:16;;;;;;;;;37.33;32.33;;;;;-147.47;100.00;64613.53;5025416;28;45905;-78
2022/04/16 06:34:41;;;;;;;;;32.00;29.33;;;;;-147.47;100.00;64613.53;5028358;28;46299;-77
2022/04/16 06:37:06;;;;;;;;;29.00;28.67;;;;;-147.47;100.00;64613.53;5020450;28;45748;-77
2022/04/16 06:39:32;;;;;;;;;37.33;29.67;;;;;-147.47;100.00;64613.53;5021953;28;45428;-74
2022/04/16 06:41:58;;;;;;;;;33.67;31.67;;;;;-147.47;100.00;64613.53;5024996;28;45416;-76
2022/04/16 06:44:23;;;;;;;;;38.00;33.00;;;;;-147.47;100.00;64613.53;5027261;28;46211;-76
2022/04/16 06:46:50;;;;;;;;;37.67;30.00;;;;;-147.47;100.00;64613.53;5025256;28;45472;-75
2022/04/16 06:49:16;;;;;;;;;26.67;24.67;;;;;-147.47;100.00;64613.53;5021199;28;45534;-71
2022/04/16 06:51:41;;;;;;;;;32.00;26.67;;;;;-147.47;100.00;64613.53;5019737;28;45817;-77
2022/04/16 06:54:06;;;;;;;;;35.00;29.00;;;;;-147.47;100.00;64613.53;5029886;28;46500;-78
2022/04/16 06:56:32;;;;;;;;;34.67;30.33;;;;;-147.47;100.00;64613.53;5039676;28;45766;-79
2022/04/16 06:58:57;;;;;;;;;31.00;28.33;;;;;-147.47;100.00;64613.53;5019327;28;45851;-78
2022/04/16 07:01:23;;;;;;;;;35.00;30.00;;;;;-147.47;100.00;64613.53;5023139;28;45587;-76
2022/04/16 07:03:48;;;;;;;;;29.00;28.33;;;;;-147.47;100.00;64613.53;5028005;28;45444;-77
2022/04/16 07:06:14;;;;;;;;;36.00;29.67;;;;;-147.47;100.00;64613.53;5009901;28;45879;-75
2022/04/16 07:08:39;;;;;;;;;33.33;29.00;;;;;-147.47;100.00;64613.53;5031771;28;45626;-79
2022/04/16 07:11:04;;;;;;;;;22.00;21.67;;;;;-147.47;100.00;64613.53;5028560;28;45708;-76
2022/04/16 07:13:30;;;;;;;;;29.00;25.67;;;;;-147.47;100.00;64613.53;5016146;28;46016;-75
2022/04/16 07:15:55;;;;;;;;;35.00;31.67;;;;;-147.47;100.00;64613.53;5034125;28;45297;-78
2022/04/16 07:18:21;;;;;;;;;32.00;30.67;;;;;-147.47;100.00;64613.53;5026436;28;45448;-76
2022/04/16 07:20:47;;;;;;;;;31.00;29.00;;;;;-147.47;100.00;64613.53;5032988;28;45730;-77
2022/04/16 07:23:13;;;;;;;;;29.67;27.00;;;;;-147.47;100.00;64613.53;5017786;28;47110;-76
2022/04/16 07:25:38;;;;;;;;;35.33;30.67;;;;;-147.47;100.00;64613.53;5031209;28;45405;-77
2022/04/16 07:28:04;;;;;;;;;32.67;30.00;;;;;-147.47;100.00;64613.53;5025387;28;45448;-76
2022/04/16 07:30:29;;;;;;;;;28.67;28.33;;;;;-147.47;100.00;64613.53;5027237;28;45828;-75
2022/04/16 07:32:55;;;;;;;;;28.00;24.67;;;;;-147.47;100.00;64613.53;5025456;28;45425;-76
2022/04/16 07:35:20;;;;;;;;;27.00;27.00;;;;;-147.47;100.00;64613.53;5026765;28;46022;-75
2022/04/16 07:37:46;;;;;;;;;34.00;29.33;;;;;-147.47;100.00;64613.53;5028402;28;45702;-78
2022/04/16 07:40:13;;;;;;;;;37.00;33.00;;;;;-147.47;100.00;64613.53;5024077;28;45673;-75
2022/04/16 07:42:39;;;;;;;;;30.00;27.00;;;;;-147.47;100.00;64613.53;5017325;28;45908;-75
2022/04/16 07:45:05;;;;;;;;;28.00;26.33;;;;;-147.47;100.00;64613.53;5020466;28;45619;-77
2022/04/16 07:47:31;;;;;;;;;21.00;19.33;;;;;-147.47;100.00;64613.53;5024845;28;45896;-79
2022/04/16 07:49:59;;;;;;;;;30.33;27.00;;;;;-147.47;100.00;64613.53;5025942;28;45790;-77
2022/04/16 07:52:25;;;;;;;;;32.67;29.33;;;;;-147.47;100.00;64613.53;5026593;28;45499;-78
2022/04/16 07:54:53;;;;;;;;;29.00;27.00;;;;;-147.47;100.00;64613.53;5020189;28;45993;-78
2022/04/16 07:57:18;;;;;;;;;29.33;27.67;;;;;-147.47;100.00;64613.53;5030120;28;45382;-79
2022/04/16 07:59:44;;;;;;;;;25.67;24.67;;;;;-147.47;100.00;64613.53;5034595;28;45757;-75
2022/04/16 08:02:09;;;;;;;;;23.33;21.00;;;;;-147.47;100.00;64613.53;5035934;28;46086;-73
2022/04/16 08:04:35;;;;;;;;;31.00;27.67;;;;;-147.47;100.00;64613.53;5008380;28;45753;-77
2022/04/16 08:07:01;;;;;;;;;42.67;32.33;;;;;-147.47;100.00;64613.53;5022762;28;45566;-75
2022/04/16 08:09:26;;;;;;;;;36.00;28.67;;;;;-147.47;100.00;64613.53;5013550;28;47240;-76
2022/04/16 08:11:52;;;;;;;;;37.00;30.33;;;;;-147.47;100.00;64613.53;5023841;28;46313;-73
2022/04/16 08:14:17;;;;;;;;;34.33;28.00;;;;;-147.47;100.00;64613.53;5017135;28;45325;-75
2022/04/16 08:16:42;;;;;;;;;35.67;29.33;;;;;-147.47;100.00;64613.53;5018998;28;45378;-71
2022/04/16 08:19:08;;;;;;;;;42.33;30.67;;;;;-147.47;100.00;64613.53;5060486;28;45617;-73
2022/04/16 08:21:34;;;;;;;;;30.33;25.33;;;;;-147.47;100.00;64613.53;5057096;28;45780;-73
2022/04/16 08:24:13;;;;;;;;;36.00;31.67;;;;;-147.47;100.00;64613.53;5021343;28;45441;-71
2022/04/16 08:26:40;;;;;;;;;34.00;28.67;;;;;-147.47;100.00;64613.53;5035343;28;45461;-72
2022/04/16 08:29:06;;;;;;;;;38.67;31.67;;;;;-147.47;100.00;64613.53;5034189;28;45660;-72
2022/04/16 08:31:31;;;;;;;;;35.00;30.33;;;;;-147.47;100.00;64613.53;5034487;28;45657;-71
2022/04/16 08:34:03;;;;;;;;;33.00;30.33;;;;;-147.47;100.00;64613.53;5034156;28;45414;-71
2022/04/16 08:36:29;;;;;;;;;40.00;32.00;;;;;-147.47;100.00;64613.53;5050743;28;45613;-72
2022/04/16 08:38:54;;;;;;;;;38.33;32.67;;;;;-147.47;100.00;64613.53;5035102;28;45679;-71
2022/04/16 08:41:24;;;;;;;;;42.67;32.67;;;;;-147.47;100.00;64613.53;5035394;28;45433;-71
2022/04/16 08:43:52;;;;;;;;;35.67;33.00;;;;;-147.47;100.00;64613.53;5038100;28;45524;-73
2022/04/16 08:46:18;;;;;;;;;44.67;36.00;;;;;-147.47;100.00;64613.53;5034033;28;45548;-72
2022/04/16 08:48:44;;;;;;;;;33.67;30.33;;;;;-147.47;100.00;64613.53;5033745;28;45865;-73
2022/04/16 08:51:09;;;;;;;;;39.00;32.67;;;;;-147.47;100.00;64613.53;5035556;28;45807;-74
2022/04/16 08:53:36;;;;;;;;;30.33;29.00;;;;;-147.47;100.00;64613.53;5033555;28;45465;-75
2022/04/16 08:56:01;;;;;;;;;28.00;23.67;;;;;-147.47;100.00;64613.53;5033627;28;45401;-73
2022/04/16 08:58:31;;;;;;;;;33.00;29.67;;;;;-147.47;100.00;64613.53;5034769;28;45611;-72
2022/04/16 09:00:58;;;;;;;;;30.00;25.00;;;;;-147.47;100.00;64613.53;5034213;28;45493;-74
2022/04/16 09:03:33;;;;;;;;;30.00;28.67;;;;;-147.47;100.00;64613.53;5034058;28;45750;-74
2022/04/16 09:05:59;;;;;;;;;30.67;26.33;;;;;-147.47;100.00;64613.53;5020451;28;45888;-72
2022/04/16 09:08:32;;;;;;;;;26.67;26.67;;;;;-147.47;100.00;64613.53;5037072;28;45642;-72
2022/04/16 09:11:09;;;;;;;;;36.33;27.67;;;;;-147.47;100.00;64613.53;5035134;28;45406;-71
2022/04/16 09:13:34;;;;;;;;;26.67;24.33;;;;;-147.47;100.00;64613.53;5035236;28;45535;-72
2022/04/16 09:16:04;;;;;;;;;23.67;19.67;;;;;-147.47;100.00;64613.53;5033657;28;45273;-73
2022/04/16 09:18:30;;;;;;;;;32.00;26.00;;;;;-147.47;100.00;64613.53;5033191;28;45496;-73
2022/04/16 09:20:55;;;;;;;;;26.67;26.67;;;;;-147.47;100.00;64613.53;5034646;28;45369;-73
2022/04/16 09:23:22;;;;;;;;;23.33;21.00;;;;;-147.47;100.00;64613.53;5033745;28;45517;-73
2022/04/16 09:25:50;;;;;;;;;26.33;24.67;;;;;-147.47;100.00;64613.53;5033129;28;45498;-73
2022/04/16 09:28:17;;;;;;;;;29.67;25.00;;;;;-147.47;100.00;64613.53;5036130;28;45367;-72
2022/04/16 09:30:56;;;;;;;;;28.00;25.67;;;;;-147.47;100.00;64613.53;5015564;28;45683;-72
2022/04/16 09:33:22;;;;;;;;;29.00;23.67;;;;;-147.47;100.00;64613.53;5015799;28;45749;-71
2022/04/16 09:35:54;;;;;;;;;27.33;25.67;;;;;-147.47;100.00;64613.53;5033522;28;45699;-73
2022/04/16 09:38:19;;;;;;;;;28.00;26.33;;;;;-147.47;100.00;64613.53;5033542;28;46106;-72
2022/04/16 09:40:52;;;;;;;;;36.67;32.67;;;;;-147.47;100.00;64613.53;5033296;28;45772;-75
2022/04/16 09:43:20;;;;;;;;;24.67;22.67;;;;;-147.47;100.00;64613.53;5033707;28;45741;-75
2022/04/16 09:45:48;;;;;;;;;26.33;21.00;;;;;-147.47;100.00;64613.53;5033778;28;45534;-73
2022/04/16 09:48:16;;;;;;;;;23.00;21.33;;;;;-147.47;100.00;64613.53;5034990;28;45410;-74
2022/04/16 09:50:44;;;;;;;;;24.33;23.00;;;;;-147.47;100.00;64613.53;5035271;28;46178;-72
2022/04/16 09:53:17;;;;;;;;;26.00;22.00;;;;;-147.47;100.00;64613.53;5034909;28;45433;-73
2022/04/16 09:55:43;;;;;;;;;28.33;24.33;;;;;-147.47;100.00;64613.53;5033080;28;45722;-74
2022/04/16 09:58:15;;;;;;;;;18.67;16.33;;;;;-147.47;100.00;64613.53;5031976;28;45939;-72
2022/04/16 10:00:41;;;;;;;;;19.67;19.33;;;;;-147.47;100.00;64613.53;5017123;28;45384;-72
2022/04/16 10:03:07;;;;;;;;;25.00;23.67;;;;;-147.47;100.00;64613.53;5033374;28;45286;-73
2022/04/16 10:05:33;;;;;;;;;20.00;20.00;;;;;-147.47;100.00;64613.53;5034051;28;45412;-74
2022/04/16 10:07:59;;;;;;;;;15.00;15.00;;;;;-147.47;100.00;64613.53;5028627;28;45878;-74
2022/04/16 10:10:30;;;;;;;;;20.00;17.67;;;;;-147.47;100.00;64613.53;5013772;28;45800;-74
2022/04/16 10:13:05;;;;;;;;;20.33;17.33;;;;;-147.47;100.00;64613.53;5013563;28;45724;-74
2022/04/16 10:16:25;;;;;;;;;20.33;16.67;;;;;-147.47;100.00;64613.53;5015476;28;45312;-74
2022/04/16 10:18:50;;;;;;;;;17.67;15.00;;;;;-147.47;100.00;64613.53;4973122;28;45595;-74
2022/04/16 10:21:17;;;;;;;;;17.00;15.00;;;;;-147.47;100.00;64613.53;4971690;28;45692;-75
2022/04/16 10:23:43;;;;;;;;;14.33;13.33;;;;;-147.47;100.00;64613.53;4981780;28;45725;-72
2022/04/16 10:26:10;;;;;;;;;18.33;17.33;;;;;-147.47;100.00;64613.53;5033834;28;45403;-76
2022/04/16 10:28:55;;;;;;;;;21.00;19.67;;;;;-147.47;100.00;64613.53;5017455;28;45258;-74
2022/04/16 10:31:33;;;;;;;;;20.67;18.33;;;;;-147.47;100.00;64613.53;5036057;28;45377;-73
2022/04/16 10:34:05;;;;;;;;;15.33;14.67;;;;;-147.47;100.00;64613.53;5036714;28;45291;-73
2022/04/16 10:36:32;;;;;;;;;17.67;15.33;;;;;-147.47;100.00;64613.53;5036211;28;45325;-73
2022/04/16 10:38:59;;;;;;;;;19.00;17.00;;;;;-147.47;100.00;64613.53;5037110;28;45239;-73
2022/04/16 10:41:27;;;;;;;;;16.67;15.33;;;;;-147.47;100.00;64613.53;5035700;28;45418;-71
2022/04/16 10:43:59;;;;;;;;;15.67;13.33;;;;;-147.47;100.00;64613.53;5036720;28;45753;-72
2022/04/16 10:46:46;;;;;;;;;10.00;8.33;;;;;-147.47;100.00;64613.53;5036042;28;45452;-71
2022/04/16 10:49:49;;;;;;;;;16.67;15.00;;;;;-147.47;100.00;64613.53;5036857;28;45417;-73
2022/04/16 10:52:23;;;;;;;;;14.33;12.67;;;;;-147.47;100.00;64613.53;5018702;28;46378;-73
2022/04/16 10:55:01;;;;;;;;;12.67;11.33;;;;;-147.47;100.00;64613.53;5037586;28;45897;-72
2022/04/16 10:57:33;;;;;;;;;12.33;12.33;;;;;-147.47;100.00;64613.53;5038677;28;45666;-73
2022/04/16 11:00:54;;;;;;;;;17.00;14.33;;;;;-147.47;100.00;64613.53;5038160;28;45546;-72
2022/04/16 11:03:33;;;;;;;;;11.67;11.33;;;;;-147.47;100.00;64613.53;5038228;28;45849;-72
2022/04/16 11:06:05;;;;;;;;;10.67;10.67;;;;;-147.47;100.00;64613.53;5035322;28;45240;-71
2022/04/16 11:08:35;;;;;;;;;13.00;11.00;;;;;-147.47;100.00;64613.53;5035963;28;45307;-72